Time;durP1;ratioP1;P1;durP2;ratioP2;P2;SDS_P1;SDS_P2;PMS_P1;PMS_P2;Temp;Humidity;BMP_temperature;BMP_pressure;BME280_temperature;BME280_humidity;BME280_pressure;Samples;Min_cycle;Max_cycle;Signal;HPM_P1;HPM_P2
2022/11/17 00:02:22;;;;;;;34.83;18.10;;;;;;;9.77;83.76;92762.16;5062154;28;20040;-77
2022/11/17 00:04:48;;;;;;;37.05;18.23;;;;;;;9.79;83.81;92754.59;5066183;28;20012;-77
2022/11/17 00:07:13;;;;;;;34.13;18.42;;;;;;;9.81;83.73;92747.88;5066234;28;20012;-77
2022/11/17 00:09:38;;;;;;;43.78;18.50;;;;;;;9.86;83.32;92754.84;5065923;28;20021;-77
2022/11/17 00:14:48;;;;;;;33.83;17.45;;;;;;;9.78;83.60;92756.50;5065961;28;20051;-76
2022/11/17 00:17:13;;;;;;;32.35;16.83;;;;;;;9.79;83.47;92747.41;5065877;28;20325;-78
2022/11/17 00:22:23;;;;;;;37.53;19.20;;;;;;;9.72;83.34;92755.19;5065765;28;20219;-79
2022/11/17 00:24:49;;;;;;;31.63;17.50;;;;;;;9.65;83.66;92741.66;5065778;28;20021;-78
2022/11/17 00:27:15;;;;;;;35.63;18.70;;;;;;;9.60;83.94;92728.59;5065773;28;20036;-77
2022/11/17 00:29:41;;;;;;;40.83;17.48;;;;;;;9.54;84.15;92743.22;5065817;28;20021;-79
2022/11/17 00:34:56;;;;;;;32.17;16.83;;;;;;;9.42;84.29;92744.78;5065844;28;20095;-80
2022/11/17 00:37:21;;;;;;;35.88;17.73;;;;;;;9.44;84.63;92747.88;5065674;28;20021;-80
2022/11/17 00:39:47;;;;;;;39.40;18.83;;;;;;;9.42;84.47;92746.66;5065602;28;20043;-80
2022/11/17 00:42:12;;;;;;;30.77;17.02;;;;;;;9.42;84.50;92750.09;5065564;28;20017;-80
2022/11/17 00:44:38;;;;;;;35.13;19.25;;;;;;;9.35;84.62;92741.88;5065313;28;20024;-77
2022/11/17 00:47:03;;;;;;;29.20;17.63;;;;;;;9.32;84.88;92731.13;5065179;28;20048;-78
2022/11/17 00:49:28;;;;;;;40.85;17.95;;;;;;;9.33;84.82;92725.50;5065140;28;20092;-77
2022/11/17 00:51:54;;;;;;;38.92;19.45;;;;;;;9.39;84.74;92724.16;5065399;28;20311;-77
2022/11/17 00:54:21;;;;;;;35.95;17.35;;;;;;;9.41;84.61;92711.31;5065058;28;20032;-78
2022/11/17 00:56:47;;;;;;;42.80;19.48;;;;;;;9.47;84.23;92721.72;5065246;28;20049;-79
2022/11/17 00:59:13;;;;;;;31.75;17.45;;;;;;;9.41;83.91;92713.97;5065018;28;20052;-79
2022/11/17 01:01:39;;;;;;;28.63;16.40;;;;;;;9.40;84.46;92707.09;5065268;28;20028;-79
2022/11/17 01:04:05;;;;;;;33.75;18.08;;;;;;;9.36;84.68;92716.84;5065170;28;20075;-79
2022/11/17 01:06:36;;;;;;;33.95;17.77;;;;;;;9.33;84.75;92708.75;5063883;28;20338;-79
2022/11/17 01:09:05;;;;;;;34.77;19.70;;;;;;;9.34;85.05;92710.31;5065200;28;20125;-79
2022/11/17 01:11:31;;;;;;;38.85;18.35;;;;;;;9.27;84.77;92723.38;5065009;28;20016;-79
2022/11/17 01:13:58;;;;;;;32.58;17.33;;;;;;;9.22;85.08;92722.50;5064055;28;20025;-79
2022/11/17 01:16:25;;;;;;;35.88;17.52;;;;;;;9.17;85.64;92730.69;5064852;28;20017;-76
2022/11/17 01:18:52;;;;;;;36.47;17.75;;;;;;;9.18;85.58;92715.50;5064925;28;20025;-76
2022/11/17 01:21:20;;;;;;;33.08;17.65;;;;;;;9.16;85.97;92715.06;5064660;28;20021;-76
2022/11/17 01:23:49;;;;;;;34.67;18.60;;;;;;;9.18;85.85;92720.81;5064523;28;20017;-78
2022/11/17 01:26:21;;;;;;;35.72;18.23;;;;;;;9.15;85.82;92697.56;5064484;28;20032;-77
2022/11/17 01:28:47;;;;;;;31.13;17.17;;;;;;;9.20;85.51;92703.44;5064362;28;20311;-78
2022/11/17 01:31:34;;;;;;;29.63;18.13;;;;;;;9.26;85.37;92706.66;5064611;28;20025;-79
2022/11/17 01:34:00;;;;;;;29.90;16.52;;;;;;;9.29;84.97;92694.59;5064007;28;20036;-77
2022/11/17 01:37:17;;;;;;;25.88;14.60;;;;;;;9.36;84.30;92702.75;5063357;28;20223;-77
2022/11/17 01:39:16;;;;;;;30.02;15.15;;;;;;;9.28;84.44;92693.81;5064338;28;20023;-78
2022/11/17 01:41:42;;;;;;;30.58;17.48;;;;;;;9.32;84.79;92694.69;5064368;28;20037;-78
2022/11/17 01:44:35;;;;;;;28.92;15.80;;;;;;;9.37;84.41;92681.16;5064383;28;20013;-78
2022/11/17 01:47:12;;;;;;;29.58;15.73;;;;;;;9.38;84.22;92688.06;5064203;28;20319;-78
2022/11/17 01:49:37;;;;;;;33.55;15.70;;;;;;;9.36;83.45;92692.94;5064283;28;20048;-78
2022/11/17 01:52:08;;;;;;;28.05;15.30;;;;;;;9.29;83.78;92690.03;5064256;28;20084;-78
2022/11/17 01:54:39;;;;;;;28.67;16.55;;;;;;;9.30;83.94;92680.97;5064176;28;20312;-77
2022/11/17 01:57:11;;;;;;;28.75;15.57;;;;;;;9.34;83.48;92673.06;5063977;28;20096;-77
2022/11/17 01:59:41;;;;;;;26.75;14.57;;;;;;;9.31;83.68;92677.19;5063975;28;20032;-77
2022/11/17 02:02:07;;;;;;;26.38;15.32;;;;;;;9.27;83.73;92678.97;5064004;28;20036;-78
2022/11/17 02:04:34;;;;;;;27.67;14.90;;;;;;;9.30;84.01;92680.97;5063955;28;20013;-78
2022/11/17 02:07:06;;;;;;;28.63;15.15;;;;;;;9.26;83.75;92680.06;5063935;28;20024;-78
2022/11/17 02:09:35;;;;;;;30.92;15.43;;;;;;;9.25;84.28;92673.19;5063884;28;20027;-77
2022/11/17 02:12:01;;;;;;;26.25;15.32;;;;;;;9.29;84.11;92674.09;5063779;28;20226;-78
2022/11/17 02:14:27;;;;;;;26.50;13.52;;;;;;;9.28;84.52;92666.44;5063648;28;20025;-77
2022/11/17 02:16:53;;;;;;;29.10;15.85;;;;;;;9.29;84.56;92660.78;5064064;28;20096;-77
2022/11/17 02:19:21;;;;;;;29.30;13.90;;;;;;;9.35;84.37;92656.03;5063861;28;20399;-79
2022/11/17 02:22:09;;;;;;;25.35;13.95;;;;;;;9.33;84.27;92659.00;5063630;28;20031;-78
2022/11/17 02:24:59;;;;;;;29.13;13.38;;;;;;;9.32;84.16;92673.44;5063406;28;20196;-78
2022/11/17 02:27:45;;;;;;;27.63;13.40;;;;;;;9.32;84.12;92673.44;5063500;28;20020;-78
2022/11/17 02:30:15;;;;;;;25.85;12.38;;;;;;;9.30;84.39;92678.31;5063427;28;20024;-78
2022/11/17 02:32:59;;;;;;;26.60;11.52;;;;;;;9.29;84.54;92674.09;5063131;28;20020;-78
2022/11/17 02:35:37;;;;;;;23.55;11.20;;;;;;;9.24;84.78;92680.41;5063580;28;20025;-78
2022/11/17 02:39:03;;;;;;;25.48;11.90;;;;;;;9.28;85.02;92661.13;5063163;28;20279;-78
2022/11/17 02:41:38;;;;;;;23.50;11.32;;;;;;;9.32;84.95;92657.47;5021746;28;20328;-80
2022/11/17 02:44:09;;;;;;;22.63;10.80;;;;;;;9.36;84.65;92652.25;5021683;28;20041;-79
2022/11/17 02:46:44;;;;;;;18.17;9.77;;;;;;;9.33;84.63;92653.69;5051830;28;20040;-78
2022/11/17 02:49:19;;;;;;;18.17;9.48;;;;;;;9.40;84.16;92647.81;5062974;28;20259;-79
2022/11/17 02:51:49;;;;;;;16.60;9.45;;;;;;;9.39;84.45;92633.75;5063131;28;20021;-79
2022/11/17 02:54:16;;;;;;;16.17;9.40;;;;;;;9.45;84.39;92644.94;5063168;28;20028;-80
2022/11/17 02:56:42;;;;;;;20.92;9.95;;;;;;;9.50;84.40;92635.94;5062984;28;20029;-80
2022/11/17 02:59:10;;;;;;;21.65;9.63;;;;;;;9.55;84.36;92643.69;5062830;28;20122;-80
2022/11/17 03:01:56;;;;;;;15.30;8.70;;;;;;;9.56;84.08;92650.56;5062819;28;20130;-80
2022/11/17 03:05:08;;;;;;;17.77;9.35;;;;;;;9.52;84.36;92655.00;5062557;28;20045;-80
2022/11/17 03:07:46;;;;;;;15.73;8.60;;;;;;;9.51;84.16;92642.81;5060566;28;20345;-79
2022/11/17 03:10:30;;;;;;;20.25;8.90;;;;;;;9.57;84.31;92636.16;5062605;28;20031;-80
2022/11/17 03:13:08;;;;;;;16.50;8.80;;;;;;;9.63;84.07;92634.81;5062826;28;20315;-80
2022/11/17 03:16:07;;;;;;;13.45;7.30;;;;;;;9.65;83.76;92645.91;5062780;28;20323;-80
2022/11/17 03:18:57;;;;;;;18.58;8.00;;;;;;;9.62;83.45;92655.31;5062450;28;20097;-79
2022/11/17 03:21:30;;;;;;;12.30;7.32;;;;;;;9.59;83.57;92649.91;5061600;28;20052;-80
2022/11/17 03:24:13;;;;;;;16.33;8.32;;;;;;;9.55;84.12;92628.50;5062897;28;20092;-79
2022/11/17 03:26:44;;;;;;;15.25;8.00;;;;;;;9.62;83.90;92634.03;5061550;28;20024;-79
2022/11/17 03:29:14;;;;;;;12.93;7.50;;;;;;;9.68;83.87;92637.22;5062646;28;20031;-80
2022/11/17 03:31:41;;;;;;;14.82;7.68;;;;;;;9.77;83.71;92643.19;5062411;28;20028;-81
2022/11/17 03:34:12;;;;;;;18.08;8.75;;;;;;;9.80;83.73;92647.84;5062419;28;20028;-80
2022/11/17 03:36:42;;;;;;;17.77;7.75;;;;;;;9.81;83.18;92649.41;5062595;28;20052;-80
2022/11/17 03:39:18;;;;;;;12.90;7.00;;;;;;;9.79;83.47;92646.31;5066439;28;20035;-80
2022/11/17 03:41:47;;;;;;;17.48;7.55;;;;;;;9.80;83.63;92650.50;5066739;28;20036;-80
2022/11/17 03:44:16;;;;;;;14.35;9.02;;;;;;;9.86;83.46;92655.59;5066408;28;20038;-79
2022/11/17 03:46:47;;;;;;;18.90;8.35;;;;;;;9.88;83.83;92656.03;5066708;28;20024;-79
2022/11/17 03:49:22;;;;;;;12.38;7.30;;;;;;;9.95;83.70;92661.53;5066629;28;20027;-79
2022/11/17 03:51:47;;;;;;;15.52;7.50;;;;;;;9.82;84.19;92648.28;5066377;28;20513;-79
2022/11/17 03:54:13;;;;;;;14.57;7.72;;;;;;;9.81;84.43;92654.72;5066268;28;20253;-79
2022/11/17 03:56:57;;;;;;;19.17;8.93;;;;;;;9.84;84.79;92639.97;5066433;28;20045;-79
2022/11/17 03:59:22;;;;;;;16.95;7.90;;;;;;;9.88;84.55;92648.06;5066319;28;20041;-79
2022/11/17 04:01:48;;;;;;;20.85;8.55;;;;;;;9.89;84.62;92641.59;5065284;28;20270;-79
2022/11/17 04:04:15;;;;;;;17.67;8.65;;;;;;;9.90;84.60;92633.28;5066205;28;20359;-79
2022/11/17 04:06:40;;;;;;;16.80;8.90;;;;;;;9.94;84.69;92654.69;5066110;28;20033;-79
2022/11/17 04:09:06;;;;;;;17.10;9.23;;;;;;;9.95;84.67;92632.25;5066085;28;20343;-79
2022/11/17 04:16:59;;;;;;;17.77;10.05;;;;;;;9.83;84.92;92633.06;5066059;28;20067;-79
2022/11/17 04:19:25;;;;;;;20.63;10.02;;;;;;;9.87;84.94;92615.34;5066178;28;20028;-80
2022/11/17 04:21:50;;;;;;;18.67;11.02;;;;;;;9.92;85.21;92625.72;5065938;28;20055;-80
2022/11/17 04:24:15;;;;;;;16.45;9.80;;;;;;;9.92;85.00;92615.09;5065756;28;20025;-77
2022/11/17 04:29:25;;;;;;;21.67;11.02;;;;;;;9.87;84.94;92622.53;5065965;28;20032;-79
2022/11/17 04:31:50;;;;;;;21.33;9.73;;;;;;;9.88;84.90;92614.22;5065503;28;20029;-79
2022/11/17 04:34:15;;;;;;;18.45;9.98;;;;;;;9.92;84.74;92614.31;5065507;28;20028;-80
2022/11/17 04:36:44;;;;;;;22.20;11.00;;;;;;;9.88;85.02;92605.47;5065545;28;20024;-79
2022/11/17 04:39:11;;;;;;;20.90;10.10;;;;;;;9.88;85.02;92602.81;5065523;28;20025;-79
2022/11/17 04:41:52;;;;;;;18.80;9.95;;;;;;;9.91;85.08;92602.13;5065298;28;20029;-80
2022/11/17 04:44:19;;;;;;;23.92;10.98;;;;;;;9.88;84.61;92608.13;5065458;28;20322;-80
2022/11/17 04:46:45;;;;;;;20.38;11.13;;;;;;;9.78;85.21;92601.41;5065338;28;20103;-79
2022/11/17 04:49:11;;;;;;;20.05;10.85;;;;;;;9.74;85.51;92603.94;5064953;28;20028;-80
2022/11/17 04:51:36;;;;;;;19.92;10.48;;;;;;;9.77;85.76;92597.97;5065459;28;20210;-80
2022/11/17 04:54:03;;;;;;;23.85;11.50;;;;;;;9.79;85.68;92584.31;5065245;28;20021;-80
2022/11/17 04:56:29;;;;;;;18.92;10.45;;;;;;;9.83;85.65;92585.97;5065298;28;20226;-79
2022/11/17 04:58:55;;;;;;;22.10;11.07;;;;;;;9.80;85.50;92593.84;5065121;28;20075;-80
2022/11/17 05:01:22;;;;;;;23.65;10.85;;;;;;;9.76;85.75;92606.28;5065305;28;20074;-80
2022/11/17 05:03:51;;;;;;;21.30;11.20;;;;;;;9.79;86.05;92589.63;5065107;28;20017;-80
2022/11/17 05:06:23;;;;;;;19.27;10.70;;;;;;;9.79;86.31;92586.97;5064960;28;20256;-79
2022/11/17 05:08:49;;;;;;;22.97;11.50;;;;;;;9.81;86.20;92582.06;5064836;28;20078;-79
2022/11/17 05:14:00;;;;;;;21.73;10.68;;;;;;;9.78;85.96;92588.84;5064827;28;20175;-79
2022/11/17 05:19:14;;;;;;;21.35;11.57;;;;;;;9.62;86.73;92569.41;5064881;28;20027;-80
2022/11/17 05:21:39;;;;;;;25.33;13.18;;;;;;;9.68;86.87;92569.94;5064613;28;20017;-80
2022/11/17 05:24:05;;;;;;;28.88;12.35;;;;;;;9.63;86.89;92555.00;5064932;28;20088;-79
2022/11/17 05:26:33;;;;;;;24.70;12.80;;;;;;;9.58;86.92;92552.56;5064438;28;20047;-80
2022/11/17 05:29:01;;;;;;;22.08;12.50;;;;;;;9.50;87.46;92550.81;5064869;28;20068;-80
2022/11/17 05:31:27;;;;;;;21.00;12.70;;;;;;;9.48;87.64;92539.75;5064665;28;20035;-78
2022/11/17 05:33:54;;;;;;;27.85;13.80;;;;;;;9.47;87.93;92543.53;5064515;28;20070;-79
2022/11/17 05:36:20;;;;;;;27.30;14.27;;;;;;;9.42;87.61;92555.97;5064600;28;20044;-79
2022/11/17 05:38:47;;;;;;;21.60;12.80;;;;;;;9.38;87.60;92557.75;5064556;28;20024;-79
2022/11/17 05:41:15;;;;;;;25.20;15.43;;;;;;;9.24;88.49;92578.59;5064527;28;20024;-79
2022/11/17 05:43:40;;;;;;;28.73;13.57;;;;;;;9.17;89.37;92578.38;5064164;28;20043;-79
2022/11/17 05:46:06;;;;;;;27.60;13.75;;;;;;;9.17;90.03;92597.00;5064339;28;20025;-79
2022/11/17 05:48:32;;;;;;;27.60;15.73;;;;;;;9.18;90.44;92577.25;5064303;28;20078;-79
2022/11/17 05:50:58;;;;;;;23.42;14.85;;;;;;;9.23;90.30;92588.44;5064324;28;20036;-79
2022/11/17 05:53:25;;;;;;;28.27;14.68;;;;;;;9.14;90.06;92582.50;5064305;28;20035;-79
2022/11/17 05:56:17;;;;;;;23.23;14.70;;;;;;;9.15;90.36;92562.00;5064294;28;20040;-79
2022/11/17 05:58:46;;;;;;;24.95;14.48;;;;;;;9.17;90.71;92583.69;5063918;28;20045;-79
2022/11/17 06:01:14;;;;;;;27.52;15.23;;;;;;;9.17;90.76;92581.81;5063332;28;20021;-79
2022/11/17 06:03:57;;;;;;;28.48;14.88;;;;;;;9.19;90.78;92570.84;5062594;28;20013;-79
2022/11/17 06:06:23;;;;;;;23.77;14.57;;;;;;;9.23;91.45;92569.06;5064133;28;20017;-79
2022/11/17 06:08:49;;;;;;;36.70;18.33;;;;;;;9.28;91.13;92570.72;5063946;28;20023;-79
2022/11/17 06:11:15;;;;;;;31.77;17.42;;;;;;;9.31;91.03;92568.16;5063743;28;20244;-79
2022/11/17 06:13:41;;;;;;;31.02;16.48;;;;;;;9.37;90.71;92592.66;5063703;28;20017;-78
2022/11/17 06:16:11;;;;;;;35.95;18.25;;;;;;;9.40;90.74;92600.72;5063679;28;20028;-80
2022/11/17 06:18:49;;;;;;;29.08;15.60;;;;;;;9.47;90.56;92589.50;5063789;28;20095;-81
2022/11/17 06:21:16;;;;;;;29.75;15.10;;;;;;;9.47;89.78;92604.72;5062445;28;20032;-81
2022/11/17 06:23:43;;;;;;;32.35;15.43;;;;;;;9.41;90.20;92620.88;5096119;28;20017;-81
2022/11/17 06:26:09;;;;;;;34.20;17.10;;;;;;;9.39;90.24;92625.00;5063301;28;20029;-80
2022/11/17 06:28:36;;;;;;;28.50;16.83;;;;;;;9.37;90.75;92645.81;5063641;28;20020;-80
2022/11/17 06:31:02;;;;;;;26.02;14.88;;;;;;;9.38;90.29;92645.50;5063432;28;20048;-80
2022/11/17 06:33:29;;;;;;;34.85;17.45;;;;;;;9.36;90.17;92653.03;5063658;28;20024;-79
2022/11/17 06:35:58;;;;;;;31.33;17.25;;;;;;;9.31;90.38;92669.22;5063457;28;20020;-79
2022/11/17 06:38:23;;;;;;;34.20;18.08;;;;;;;9.19;91.23;92680.63;5063612;28;20025;-79
2022/11/17 06:40:50;;;;;;;35.15;18.83;;;;;;;9.22;91.44;92689.81;5063284;28;20027;-80
2022/11/17 06:43:15;;;;;;;30.85;15.13;;;;;;;9.19;91.50;92715.19;5063317;28;20032;-79
2022/11/17 06:45:43;;;;;;;31.33;15.95;;;;;;;9.09;92.15;92710.28;5063228;28;20146;-80
2022/11/17 06:48:10;;;;;;;27.55;14.70;;;;;;;9.07;92.58;92728.47;5063201;28;20020;-80
2022/11/17 06:50:36;;;;;;;22.85;14.25;;;;;;;9.08;92.87;92731.88;5063124;28;20025;-79
2022/11/17 06:53:04;;;;;;;24.33;12.05;;;;;;;9.06;93.04;92732.22;5062883;28;20047;-79
2022/11/17 06:55:30;;;;;;;22.88;13.85;;;;;;;9.02;93.49;92756.03;5063311;28;20032;-80
2022/11/17 06:58:10;;;;;;;23.20;11.23;;;;;;;9.02;93.96;92821.72;5063160;28;20044;-79
2022/11/17 07:00:36;;;;;;;17.95;9.65;;;;;;;8.93;94.51;92831.63;5063174;28;20047;-80
2022/11/17 07:03:07;;;;;;;11.02;6.50;;;;;;;8.86;93.91;92799.50;5062857;28;20071;-78
2022/11/17 07:05:34;;;;;;;10.60;3.38;;;;;;;8.90;92.64;92779.94;5062645;28;20044;-79
2022/11/17 07:08:03;;;;;;;3.65;2.30;;;;;;;9.00;91.36;92784.81;5063088;28;20066;-81
2022/11/17 07:10:29;;;;;;;3.13;1.40;;;;;;;9.17;87.03;92769.78;5062972;28;20036;-82
2022/11/17 07:12:55;;;;;;;3.00;1.23;;;;;;;9.31;86.30;92748.22;5062802;28;20082;-82
2022/11/17 07:15:21;;;;;;;2.42;1.33;;;;;;;9.39;87.25;92740.13;5062735;28;20315;-83
2022/11/17 07:17:47;;;;;;;3.33;1.27;;;;;;;9.46;85.83;92733.47;5062378;28;20029;-83
2022/11/17 07:20:13;;;;;;;4.07;1.00;;;;;;;9.54;84.47;92713.94;5062734;28;20086;-84
2022/11/17 07:22:40;;;;;;;1.80;0.95;;;;;;;9.60;83.84;92694.75;5062461;28;20196;-82
2022/11/17 07:25:06;;;;;;;2.00;0.82;;;;;;;9.68;82.00;92682.44;5062565;28;20314;-82
2022/11/17 07:27:31;;;;;;;1.42;0.60;;;;;;;9.81;79.40;92653.94;5062752;28;20016;-81
2022/11/17 07:29:57;;;;;;;1.33;0.60;;;;;;;9.93;80.30;92656.56;5062440;28;20092;-78
2022/11/17 07:32:23;;;;;;;0.95;0.55;;;;;;;10.03;76.33;92612.72;5062482;28;20055;-82
2022/11/17 07:34:49;;;;;;;1.08;0.20;;;;;;;10.21;74.53;92583.91;5062401;28;20159;-82
2022/11/17 07:37:14;;;;;;;0.30;0.30;;;;;;;10.44;72.80;92530.84;5062479;28;20219;-81
2022/11/17 07:39:40;;;;;;;0.35;0.30;;;;;;;10.63;71.76;92527.50;5062511;28;20016;-81
2022/11/17 07:42:05;;;;;;;1.63;0.47;;;;;;;10.77;71.72;92495.09;5062315;28;20315;-80
2022/11/17 07:44:33;;;;;;;0.10;0.10;;;;;;;11.07;68.45;92564.66;5062430;28;20017;-80
2022/11/17 07:46:59;;;;;;;0.52;0.30;;;;;;;11.26;69.25;92517.84;5062308;28;20032;-80
2022/11/17 07:49:25;;;;;;;0.52;0.20;;;;;;;11.40;69.06;92529.56;5062488;28;20025;-79
2022/11/17 07:51:51;;;;;;;3.63;0.38;;;;;;;11.57;68.52;92511.59;5062450;28;20048;-79
2022/11/17 07:54:16;;;;;;;0.32;0.10;;;;;;;11.77;65.10;92523.81;5062254;28;20025;-80
2022/11/17 07:56:42;;;;;;;0.10;0.10;;;;;;;11.95;64.59;92539.44;5062262;28;20016;-79
2022/11/17 07:59:07;;;;;;;0.28;0.20;;;;;;;12.13;62.92;92535.19;5062162;28;20045;-78
2022/11/17 08:01:33;;;;;;;0.10;0.10;;;;;;;12.32;62.89;92584.34;5062335;28;20025;-78
2022/11/17 08:03:59;;;;;;;0.10;0.10;;;;;;;12.49;59.43;92581.22;5061979;28;20290;-78
2022/11/17 08:06:24;;;;;;;0.57;0.20;;;;;;;12.68;60.69;92601.78;5062354;28;20036;-78
2022/11/17 08:08:50;;;;;;;0.32;0.20;;;;;;;12.83;59.66;92594.75;5060988;28;20108;-79
2022/11/17 08:11:16;;;;;;;0.25;0.20;;;;;;;13.05;60.39;92606.56;5062206;28;20017;-78
2022/11/17 08:13:42;;;;;;;0.43;0.28;;;;;;;13.27;57.44;92612.25;5062259;28;20246;-78
2022/11/17 08:16:08;;;;;;;4.72;0.20;;;;;;;13.46;61.40;92624.78;5062043;28;20059;-78
2022/11/17 08:18:35;;;;;;;0.10;0.10;;;;;;;13.46;58.26;92622.88;5062142;28;20050;-77
2022/11/17 08:21:04;;;;;;;0.65;0.40;;;;;;;13.37;60.22;92611.66;5062294;28;20020;-77
2022/11/17 08:23:30;;;;;;;0.32;0.30;;;;;;;13.21;59.98;92595.75;5062807;28;20024;-77
2022/11/17 08:25:55;;;;;;;0.32;0.20;;;;;;;13.03;58.87;92633.69;5066069;28;20029;-78
2022/11/17 08:28:21;;;;;;;0.70;0.40;;;;;;;12.89;59.91;92622.75;5065914;28;20028;-77
2022/11/17 08:30:47;;;;;;;0.93;0.30;;;;;;;12.92;59.14;92651.44;5065755;28;20044;-78
2022/11/17 08:33:12;;;;;;;2.92;1.45;;;;;;;12.88;60.91;92650.59;5065453;28;20021;-80
2022/11/17 08:35:38;;;;;;;0.20;0.20;;;;;;;12.93;60.50;92669.03;5065705;28;20033;-77
2022/11/17 08:38:04;;;;;;;0.77;0.47;;;;;;;12.97;58.30;92661.84;5065808;28;20173;-79
2022/11/17 08:40:29;;;;;;;0.85;0.35;;;;;;;13.03;58.05;92663.09;5065379;28;20021;-77
2022/11/17 08:42:55;;;;;;;0.30;0.30;;;;;;;13.10;57.92;92681.16;5065798;28;20063;-78
2022/11/17 08:45:20;;;;;;;0.38;0.30;;;;;;;13.26;57.88;92664.97;5065465;28;20311;-78
2022/11/17 08:47:46;;;;;;;0.15;0.15;;;;;;;13.27;53.85;92673.78;5065235;28;20102;-80
2022/11/17 08:50:11;;;;;;;0.75;0.30;;;;;;;13.39;52.86;92669.06;5065437;28;20066;-78
2022/11/17 08:52:36;;;;;;;1.23;0.35;;;;;;;13.59;53.74;92675.06;5065478;28;20021;-76
2022/11/17 08:55:04;;;;;;;1.25;0.30;;;;;;;13.67;52.74;92700.03;5065064;28;20025;-78
2022/11/17 08:57:30;;;;;;;0.55;0.20;;;;;;;13.82;53.00;92693.00;5065090;28;20044;-77
2022/11/17 08:59:56;;;;;;;0.40;0.32;;;;;;;14.02;52.26;92688.28;5065468;28;20052;-78
2022/11/17 09:02:21;;;;;;;0.55;0.30;;;;;;;14.16;51.47;92688.47;5065267;28;20196;-79
2022/11/17 09:04:47;;;;;;;0.40;0.22;;;;;;;14.32;51.27;92674.88;5063793;28;20108;-79
2022/11/17 09:07:12;;;;;;;0.82;0.40;;;;;;;14.44;50.79;92688.03;5063848;28;20043;-79
2022/11/17 09:09:38;;;;;;;0.65;0.40;;;;;;;14.50;51.69;92683.13;5064979;28;20092;-78
2022/11/17 09:12:03;;;;;;;4.68;1.90;;;;;;;14.71;58.50;92690.66;5064649;28;20379;-77
2022/11/17 09:14:30;;;;;;;8.70;2.83;;;;;;;14.83;59.60;92686.97;5063416;28;20033;-78
2022/11/17 09:16:56;;;;;;;9.20;3.88;;;;;;;14.89;61.89;92679.38;5065022;28;20377;-79
2022/11/17 09:19:21;;;;;;;5.22;2.72;;;;;;;14.95;60.56;92678.66;5064929;28;20036;-79
2022/11/17 09:21:47;;;;;;;15.68;3.33;;;;;;;14.90;61.11;92689.72;5064779;28;20099;-78
2022/11/17 09:24:12;;;;;;;11.50;4.30;;;;;;;15.08;62.32;92692.56;5064822;28;20092;-79
2022/11/17 09:26:39;;;;;;;7.90;3.80;;;;;;;15.20;62.03;92691.53;5064910;28;20024;-83
2022/11/17 09:29:05;;;;;;;10.70;6.38;;;;;;;15.31;62.63;92684.34;5064717;28;20037;-79
2022/11/17 09:31:31;;;;;;;11.52;5.13;;;;;;;15.38;62.53;92684.38;5064807;28;20039;-81
2022/11/17 09:33:56;;;;;;;7.18;3.75;;;;;;;15.44;61.65;92682.91;5064829;28;20141;-80
2022/11/17 09:36:22;;;;;;;14.02;7.13;;;;;;;15.52;62.19;92689.09;5063693;28;20075;-79
2022/11/17 09:38:47;;;;;;;16.75;6.65;;;;;;;15.55;61.95;92688.38;5064397;28;20048;-80
2022/11/17 09:41:34;;;;;;;12.82;5.07;;;;;;;15.52;61.92;92691.78;5064482;28;20052;-81
2022/11/17 09:44:19;;;;;;;18.55;4.72;;;;;;;15.48;63.03;92682.94;5064225;28;20330;-80
2022/11/17 09:47:08;;;;;;;18.45;6.55;;;;;;;15.43;63.40;92692.13;5064367;28;20044;-80
2022/11/17 09:49:36;;;;;;;11.32;6.15;;;;;;;15.45;64.08;92692.50;5064079;28;20100;-80
2022/11/17 09:52:12;;;;;;;9.07;4.78;;;;;;;15.44;63.93;92687.50;5063821;28;20041;-79
2022/11/17 09:54:48;;;;;;;9.45;5.28;;;;;;;15.47;63.63;92683.31;5063759;28;20051;-79
2022/11/17 09:57:25;;;;;;;10.35;4.60;;;;;;;15.54;62.95;92692.19;5063796;28;20266;-77
2022/11/17 10:00:03;;;;;;;9.73;4.82;;;;;;;15.53;62.29;92690.66;5063721;28;20302;-78
2022/11/17 10:02:29;;;;;;;8.98;5.22;;;;;;;15.54;61.36;92681.44;5063971;28;20029;-79
2022/11/17 10:04:54;;;;;;;14.23;5.47;;;;;;;15.55;61.78;92679.53;5064218;28;20025;-79
2022/11/17 10:07:21;;;;;;;8.32;4.47;;;;;;;15.57;61.72;92693.34;5063830;28;20339;-78
2022/11/17 10:09:50;;;;;;;12.20;4.65;;;;;;;15.61;60.97;92688.78;5063842;28;20028;-79
2022/11/17 10:12:19;;;;;;;6.78;3.80;;;;;;;15.70;61.63;92689.25;5063949;28;20067;-78
2022/11/17 10:14:47;;;;;;;14.77;5.68;;;;;;;15.80;61.29;92691.25;5063548;28;20020;-78
2022/11/17 10:17:14;;;;;;;9.90;5.05;;;;;;;15.97;60.72;92681.00;5063605;28;20102;-78
2022/11/17 10:19:59;;;;;;;11.00;6.53;;;;;;;16.00;60.61;92680.25;5063961;28;20096;-77
2022/11/17 10:22:34;;;;;;;9.02;5.32;;;;;;;15.97;59.56;92687.13;5063636;28;20021;-77
2022/11/17 10:25:00;;;;;;;7.40;4.55;;;;;;;15.81;59.68;92684.75;5063422;28;20013;-77
2022/11/17 10:27:27;;;;;;;11.77;4.85;;;;;;;15.88;60.21;92673.28;5063491;28;20383;-77
2022/11/17 10:30:06;;;;;;;7.75;4.25;;;;;;;15.99;60.54;92676.00;5063734;28;20082;-78
2022/11/17 10:32:36;;;;;;;10.02;4.03;;;;;;;15.93;58.34;92672.91;5063415;28;20307;-77
2022/11/17 10:35:13;;;;;;;12.70;3.95;;;;;;;15.72;59.20;92670.06;5063563;28;20147;-77
2022/11/17 10:37:44;;;;;;;6.55;3.72;;;;;;;15.71;59.85;92658.53;5063375;28;20066;-78
2022/11/17 10:40:37;;;;;;;7.35;3.20;;;;;;;15.44;59.34;92674.84;5063232;28;20021;-78
2022/11/17 10:43:12;;;;;;;8.25;3.58;;;;;;;15.41;59.16;92670.25;5059259;28;20087;-77
2022/11/17 10:45:46;;;;;;;12.00;3.88;;;;;;;15.37;60.39;92666.00;5063091;28;20029;-77
2022/11/17 10:48:20;;;;;;;3.83;1.70;;;;;;;15.28;58.73;92663.59;5063191;28;20029;-78
2022/11/17 10:51:03;;;;;;;1.02;0.50;;;;;;;15.23;57.12;92667.41;5063041;28;20108;-77
2022/11/17 10:53:30;;;;;;;1.17;0.60;;;;;;;15.15;57.83;92665.81;5063080;28;20020;-77
2022/11/17 10:56:21;;;;;;;1.58;0.30;;;;;;;15.01;57.32;92673.72;5063369;28;20257;-77
2022/11/17 10:59:08;;;;;;;0.77;0.20;;;;;;;14.89;56.95;92668.63;5061574;28;20428;-77
2022/11/17 11:01:36;;;;;;;0.38;0.20;;;;;;;14.94;57.29;92663.72;5063049;28;20280;-78
2022/11/17 11:04:04;;;;;;;1.38;0.30;;;;;;;14.87;56.99;92665.53;5063021;28;20020;-77
2022/11/17 11:06:32;;;;;;;0.90;0.40;;;;;;;14.86;57.94;92659.41;5063068;28;20021;-77
2022/11/17 11:09:10;;;;;;;1.85;0.50;;;;;;;14.98;58.19;92661.03;5062701;28;20020;-77
2022/11/17 11:11:52;;;;;;;1.88;0.60;;;;;;;15.16;58.70;92671.94;5062536;28;20029;-77
2022/11/17 11:14:35;;;;;;;0.65;0.40;;;;;;;15.25;58.50;92683.16;5062779;28;20033;-77
2022/11/17 11:17:10;;;;;;;2.50;0.40;;;;;;;15.36;57.98;92670.56;5062837;28;20036;-77
2022/11/17 11:19:35;;;;;;;0.52;0.30;;;;;;;15.37;58.14;92672.13;5062667;28;20028;-78
2022/11/17 11:22:16;;;;;;;0.98;0.20;;;;;;;15.42;57.35;92668.31;5061609;28;20033;-78
2022/11/17 11:24:53;;;;;;;0.30;0.15;;;;;;;15.25;57.41;92673.16;5062960;28;20028;-78
2022/11/17 11:27:37;;;;;;;0.50;0.20;;;;;;;15.18;57.51;92665.06;5062656;28;20315;-75
2022/11/17 11:30:12;;;;;;;0.30;0.20;;;;;;;15.16;57.76;92683.47;5062861;28;20035;-78
2022/11/17 11:33:06;;;;;;;0.70;0.45;;;;;;;15.14;57.94;92679.59;5062849;28;20029;-78
2022/11/17 11:35:55;;;;;;;0.70;0.40;;;;;;;15.16;58.15;92688.03;5062538;28;20029;-78
2022/11/17 11:38:48;;;;;;;1.65;0.70;;;;;;;15.21;58.02;92695.75;5062650;28;20063;-79
2022/11/17 11:42:04;;;;;;;1.10;0.57;;;;;;;15.40;58.58;92692.84;5062745;28;20032;-79
2022/11/17 11:44:38;;;;;;;3.72;0.40;;;;;;;15.42;55.95;92692.47;5053589;28;20332;-79
2022/11/17 11:47:45;;;;;;;1.27;0.43;;;;;;;15.37;56.15;92680.19;5062543;28;20048;-80
2022/11/17 11:50:16;;;;;;;0.90;0.30;;;;;;;15.37;58.13;92690.16;5040844;28;20108;-79
2022/11/17 11:52:47;;;;;;;0.90;0.35;;;;;;;15.43;57.48;92681.38;5059692;28;20052;-79
2022/11/17 11:55:32;;;;;;;0.20;0.20;;;;;;;15.42;57.24;92679.06;5062359;28;20074;-79
2022/11/17 11:58:04;;;;;;;0.60;0.30;;;;;;;15.35;58.16;92679.78;5062662;28;20251;-79
2022/11/17 12:00:30;;;;;;;0.45;0.28;;;;;;;15.23;58.18;92678.13;5065489;28;20323;-81
2022/11/17 12:03:39;;;;;;;0.32;0.20;;;;;;;15.14;59.08;92684.94;5066552;28;20017;-77
2022/11/17 12:09:08;;;;;;;0.40;0.30;;;;;;;14.88;59.20;92681.28;5066462;28;20024;-79
2022/11/17 12:14:18;;;;;;;0.52;0.35;;;;;;;14.87;59.98;92682.41;5066253;28;19923;-79